sensor_id;sensor_type;location;lat;lon;timestamp;temperature;humidity
23283;DHT22;11810;51.178;3.878;2023-01-15T00:00:59;7.90;99.90
23283;DHT22;11810;51.178;3.878;2023-01-15T00:03:25;8.00;99.90
23283;DHT22;11810;51.178;3.878;2023-01-15T00:05:51;7.90;99.90
23283;DHT22;11810;51.178;3.878;2023-01-15T00:08:17;7.90;99.90
23283;DHT22;11810;51.178;3.878;2023-01-15T00:10:43;7.90;99.90
23283;DHT22;11810;51.178;3.878;2023-01-15T00:13:09;7.90;99.90
23283;DHT22;11810;51.178;3.878;2023-01-15T00:15:35;7.90;99.90
23283;DHT22;11810;51.178;3.878;2023-01-15T00:18:01;7.90;99.90
23283;DHT22;11810;51.178;3.878;2023-01-15T00:20:27;7.90;99.90
23283;DHT22;11810;51.178;3.878;2023-01-15T00:22:53;7.90;99.90
23283;DHT22;11810;51.178;3.878;2023-01-15T00:25:19;7.90;99.90
23283;DHT22;11810;51.178;3.878;2023-01-15T00:28:03;7.90;99.90
23283;DHT22;11810;51.178;3.878;2023-01-15T00:30:29;7.80;99.90
23283;DHT22;11810;51.178;3.878;2023-01-15T00:32:57;7.90;99.90
23283;DHT22;11810;51.178;3.878;2023-01-15T00:35:24;7.80;99.90
23283;DHT22;11810;51.178;3.878;2023-01-15T00:37:50;7.90;99.90
23283;DHT22;11810;51.178;3.878;2023-01-15T00:40:18;7.80;99.90
23283;DHT22;11810;51.178;3.878;2023-01-15T00:42:44;7.80;99.90
23283;DHT22;11810;51.178;3.878;2023-01-15T00:45:10;7.90;99.90
23283;DHT22;11810;51.178;3.878;2023-01-15T00:47:41;7.90;99.90
23283;DHT22;11810;51.178;3.878;2023-01-15T00:50:10;7.90;99.90
23283;DHT22;11810;51.178;3.878;2023-01-15T00:52:36;7.80;99.90
23283;DHT22;11810;51.178;3.878;2023-01-15T00:55:03;7.80;99.90
23283;DHT22;11810;51.178;3.878;2023-01-15T00:57:29;7.80;99.90
23283;DHT22;11810;51.178;3.878;2023-01-15T00:59:54;7.70;99.90
23283;DHT22;11810;51.178;3.878;2023-01-15T01:02:20;7.70;99.90
23283;DHT22;11810;51.178;3.878;2023-01-15T01:04:46;7.70;99.90
23283;DHT22;11810;51.178;3.878;2023-01-15T01:07:12;7.60;99.90
23283;DHT22;11810;51.178;3.878;2023-01-15T01:09:38;7.60;99.90
23283;DHT22;11810;51.178;3.878;2023-01-15T01:12:05;7.60;99.90
23283;DHT22;11810;51.178;3.878;2023-01-15T01:14:31;7.60;99.90
23283;DHT22;11810;51.178;3.878;2023-01-15T01:16:57;7.70;99.90
23283;DHT22;11810;51.178;3.878;2023-01-15T01:19:24;7.60;99.90
23283;DHT22;11810;51.178;3.878;2023-01-15T01:21:51;7.60;99.90
23283;DHT22;11810;51.178;3.878;2023-01-15T01:24:22;7.50;99.90
23283;DHT22;11810;51.178;3.878;2023-01-15T01:26:49;7.50;99.90
23283;DHT22;11810;51.178;3.878;2023-01-15T01:29:20;7.50;99.90
23283;DHT22;11810;51.178;3.878;2023-01-15T01:31:47;7.50;99.90
23283;DHT22;11810;51.178;3.878;2023-01-15T01:34:13;7.50;99.90
23283;DHT22;11810;51.178;3.878;2023-01-15T01:36:41;7.50;99.90
23283;DHT22;11810;51.178;3.878;2023-01-15T01:39:12;7.50;99.90
23283;DHT22;11810;51.178;3.878;2023-01-15T01:41:38;7.60;99.90
23283;DHT22;11810;51.178;3.878;2023-01-15T01:44:07;7.50;99.90
23283;DHT22;11810;51.178;3.878;2023-01-15T01:46:51;7.40;99.90
23283;DHT22;11810;51.178;3.878;2023-01-15T01:49:16;7.50;99.90
23283;DHT22;11810;51.178;3.878;2023-01-15T01:51:49;7.40;99.90
23283;DHT22;11810;51.178;3.878;2023-01-15T01:54:20;7.50;99.90
23283;DHT22;11810;51.178;3.878;2023-01-15T01:56:47;7.50;99.90
23283;DHT22;11810;51.178;3.878;2023-01-15T01:59:15;7.50;99.90
23283;DHT22;11810;51.178;3.878;2023-01-15T02:01:42;7.50;99.90
23283;DHT22;11810;51.178;3.878;2023-01-15T02:04:09;7.50;99.90
23283;DHT22;11810;51.178;3.878;2023-01-15T02:06:37;7.50;99.90
23283;DHT22;11810;51.178;3.878;2023-01-15T02:09:04;7.50;99.90
23283;DHT22;11810;51.178;3.878;2023-01-15T02:11:31;7.40;99.90
23283;DHT22;11810;51.178;3.878;2023-01-15T02:14:11;7.50;99.90
23283;DHT22;11810;51.178;3.878;2023-01-15T02:17:04;7.50;99.90
23283;DHT22;11810;51.178;3.878;2023-01-15T02:22:57;7.50;99.90
23283;DHT22;11810;51.178;3.878;2023-01-15T02:28:36;7.40;99.90
23283;DHT22;11810;51.178;3.878;2023-01-15T02:33:50;7.40;99.90
23283;DHT22;11810;51.178;3.878;2023-01-15T02:36:22;7.50;99.90
23283;DHT22;11810;51.178;3.878;2023-01-15T02:38:50;7.50;99.90
23283;DHT22;11810;51.178;3.878;2023-01-15T02:41:19;7.50;99.90
23283;DHT22;11810;51.178;3.878;2023-01-15T02:43:52;7.50;99.90
23283;DHT22;11810;51.178;3.878;2023-01-15T02:46:23;7.50;99.90
23283;DHT22;11810;51.178;3.878;2023-01-15T02:48:53;7.50;99.90
23283;DHT22;11810;51.178;3.878;2023-01-15T02:51:26;7.40;99.90
23283;DHT22;11810;51.178;3.878;2023-01-15T02:53:57;7.40;99.90
23283;DHT22;11810;51.178;3.878;2023-01-15T02:56:27;7.40;99.90
23283;DHT22;11810;51.178;3.878;2023-01-15T02:58:58;7.30;99.90
23283;DHT22;11810;51.178;3.878;2023-01-15T03:01:34;7.30;99.90
23283;DHT22;11810;51.178;3.878;2023-01-15T03:04:21;7.30;99.90
23283;DHT22;11810;51.178;3.878;2023-01-15T03:07:24;7.20;99.90
23283;DHT22;11810;51.178;3.878;2023-01-15T03:09:52;7.20;99.90
23283;DHT22;11810;51.178;3.878;2023-01-15T03:12:29;7.20;99.90
23283;DHT22;11810;51.178;3.878;2023-01-15T03:15:11;7.20;99.90
23283;DHT22;11810;51.178;3.878;2023-01-15T03:17:58;7.20;99.90
23283;DHT22;11810;51.178;3.878;2023-01-15T03:20:27;7.20;99.90
23283;DHT22;11810;51.178;3.878;2023-01-15T03:22:58;7.10;99.90
23283;DHT22;11810;51.178;3.878;2023-01-15T03:25:33;7.10;99.90
23283;DHT22;11810;51.178;3.878;2023-01-15T03:28:02;7.10;99.90
23283;DHT22;11810;51.178;3.878;2023-01-15T03:30:29;7.10;99.90
23283;DHT22;11810;51.178;3.878;2023-01-15T03:32:54;7.00;99.90
23283;DHT22;11810;51.178;3.878;2023-01-15T03:35:48;7.00;99.90
23283;DHT22;11810;51.178;3.878;2023-01-15T03:38:32;7.00;99.90
23283;DHT22;11810;51.178;3.878;2023-01-15T03:45:39;6.90;99.90
23283;DHT22;11810;51.178;3.878;2023-01-15T03:50:53;6.80;99.90
23283;DHT22;11810;51.178;3.878;2023-01-15T03:53:24;6.90;99.90
23283;DHT22;11810;51.178;3.878;2023-01-15T03:56:13;6.80;99.90
23283;DHT22;11810;51.178;3.878;2023-01-15T03:58:47;6.90;99.90
23283;DHT22;11810;51.178;3.878;2023-01-15T04:01:18;6.90;99.90
23283;DHT22;11810;51.178;3.878;2023-01-15T04:03:45;7.00;99.90
23283;DHT22;11810;51.178;3.878;2023-01-15T04:06:13;6.90;99.90
23283;DHT22;11810;51.178;3.878;2023-01-15T04:08:41;7.00;99.90
23283;DHT22;11810;51.178;3.878;2023-01-15T04:11:08;6.90;99.90
23283;DHT22;11810;51.178;3.878;2023-01-15T04:13:34;6.90;99.90
23283;DHT22;11810;51.178;3.878;2023-01-15T04:16:00;7.00;99.90
23283;DHT22;11810;51.178;3.878;2023-01-15T04:18:26;6.90;99.90
23283;DHT22;11810;51.178;3.878;2023-01-15T04:20:52;6.90;99.90
23283;DHT22;11810;51.178;3.878;2023-01-15T04:23:20;7.00;99.90
23283;DHT22;11810;51.178;3.878;2023-01-15T04:25:46;7.10;99.90
23283;DHT22;11810;51.178;3.878;2023-01-15T04:28:12;7.10;99.90
23283;DHT22;11810;51.178;3.878;2023-01-15T04:30:38;7.00;99.90
23283;DHT22;11810;51.178;3.878;2023-01-15T04:33:04;7.10;99.90
23283;DHT22;11810;51.178;3.878;2023-01-15T04:36:34;7.00;99.90
23283;DHT22;11810;51.178;3.878;2023-01-15T04:39:03;7.00;99.90
23283;DHT22;11810;51.178;3.878;2023-01-15T04:41:29;7.00;99.90
23283;DHT22;11810;51.178;3.878;2023-01-15T04:44:14;6.90;99.90
23283;DHT22;11810;51.178;3.878;2023-01-15T04:46:43;6.90;99.90
23283;DHT22;11810;51.178;3.878;2023-01-15T04:49:12;6.90;99.90
23283;DHT22;11810;51.178;3.878;2023-01-15T04:51:38;6.80;99.90
23283;DHT22;11810;51.178;3.878;2023-01-15T04:54:08;6.80;99.90
23283;DHT22;11810;51.178;3.878;2023-01-15T04:56:56;6.80;99.90
23283;DHT22;11810;51.178;3.878;2023-01-15T04:59:24;6.80;99.90
23283;DHT22;11810;51.178;3.878;2023-01-15T05:01:51;6.90;99.90
23283;DHT22;11810;51.178;3.878;2023-01-15T05:04:16;6.90;99.90
23283;DHT22;11810;51.178;3.878;2023-01-15T05:06:42;6.90;99.90
23283;DHT22;11810;51.178;3.878;2023-01-15T05:09:08;6.90;99.90
23283;DHT22;11810;51.178;3.878;2023-01-15T05:11:35;6.90;99.90
23283;DHT22;11810;51.178;3.878;2023-01-15T05:14:02;6.90;99.90
23283;DHT22;11810;51.178;3.878;2023-01-15T05:16:28;6.90;99.90
23283;DHT22;11810;51.178;3.878;2023-01-15T05:18:58;6.80;99.90
23283;DHT22;11810;51.178;3.878;2023-01-15T05:21:26;6.90;99.90
23283;DHT22;11810;51.178;3.878;2023-01-15T05:23:54;6.90;99.90
23283;DHT22;11810;51.178;3.878;2023-01-15T05:26:21;6.90;99.90
23283;DHT22;11810;51.178;3.878;2023-01-15T05:28:51;6.90;99.90
23283;DHT22;11810;51.178;3.878;2023-01-15T05:31:18;7.00;99.90
23283;DHT22;11810;51.178;3.878;2023-01-15T05:33:45;7.00;99.90
23283;DHT22;11810;51.178;3.878;2023-01-15T05:36:14;6.90;99.90
23283;DHT22;11810;51.178;3.878;2023-01-15T05:38:41;6.80;99.90
23283;DHT22;11810;51.178;3.878;2023-01-15T05:41:09;6.80;99.90
23283;DHT22;11810;51.178;3.878;2023-01-15T05:43:54;6.70;99.90
23283;DHT22;11810;51.178;3.878;2023-01-15T05:46:21;6.60;99.90
23283;DHT22;11810;51.178;3.878;2023-01-15T05:48:48;6.60;99.90
23283;DHT22;11810;51.178;3.878;2023-01-15T05:51:14;6.70;99.90
23283;DHT22;11810;51.178;3.878;2023-01-15T05:53:39;6.60;99.90
23283;DHT22;11810;51.178;3.878;2023-01-15T05:56:05;6.70;99.90
23283;DHT22;11810;51.178;3.878;2023-01-15T05:58:31;6.60;99.90
23283;DHT22;11810;51.178;3.878;2023-01-15T06:00:58;6.50;99.90
23283;DHT22;11810;51.178;3.878;2023-01-15T06:03:25;6.50;99.90
23283;DHT22;11810;51.178;3.878;2023-01-15T06:05:52;6.40;99.90
23283;DHT22;11810;51.178;3.878;2023-01-15T06:08:18;6.30;99.90
23283;DHT22;11810;51.178;3.878;2023-01-15T06:10:45;6.30;99.90
23283;DHT22;11810;51.178;3.878;2023-01-15T06:13:11;6.30;99.90
23283;DHT22;11810;51.178;3.878;2023-01-15T06:15:37;6.30;99.90
23283;DHT22;11810;51.178;3.878;2023-01-15T06:18:03;6.10;99.90
23283;DHT22;11810;51.178;3.878;2023-01-15T06:20:29;6.10;99.90
23283;DHT22;11810;51.178;3.878;2023-01-15T06:22:55;6.10;99.90
23283;DHT22;11810;51.178;3.878;2023-01-15T06:25:21;6.10;99.90
23283;DHT22;11810;51.178;3.878;2023-01-15T06:27:46;6.00;99.90
23283;DHT22;11810;51.178;3.878;2023-01-15T06:30:14;6.00;99.90
23283;DHT22;11810;51.178;3.878;2023-01-15T06:32:40;5.90;99.90
23283;DHT22;11810;51.178;3.878;2023-01-15T06:35:06;6.00;99.90
23283;DHT22;11810;51.178;3.878;2023-01-15T06:37:31;5.90;99.90
23283;DHT22;11810;51.178;3.878;2023-01-15T06:39:57;5.80;99.90
23283;DHT22;11810;51.178;3.878;2023-01-15T06:42:23;5.90;99.90
23283;DHT22;11810;51.178;3.878;2023-01-15T06:45:10;5.80;99.90
23283;DHT22;11810;51.178;3.878;2023-01-15T06:47:56;5.70;99.90
23283;DHT22;11810;51.178;3.878;2023-01-15T06:50:23;5.70;99.90
23283;DHT22;11810;51.178;3.878;2023-01-15T06:52:49;5.60;99.90
23283;DHT22;11810;51.178;3.878;2023-01-15T06:55:15;5.60;99.90
23283;DHT22;11810;51.178;3.878;2023-01-15T06:57:43;5.60;99.90
23283;DHT22;11810;51.178;3.878;2023-01-15T07:00:10;5.60;99.90
23283;DHT22;11810;51.178;3.878;2023-01-15T07:02:36;5.60;99.90
23283;DHT22;11810;51.178;3.878;2023-01-15T07:05:02;5.60;99.90
23283;DHT22;11810;51.178;3.878;2023-01-15T07:07:29;5.60;99.90
23283;DHT22;11810;51.178;3.878;2023-01-15T07:09:54;5.60;99.90
23283;DHT22;11810;51.178;3.878;2023-01-15T07:12:21;5.60;99.90
23283;DHT22;11810;51.178;3.878;2023-01-15T07:14:47;5.60;99.90
23283;DHT22;11810;51.178;3.878;2023-01-15T07:17:13;5.60;99.90
23283;DHT22;11810;51.178;3.878;2023-01-15T07:19:39;5.60;99.90
23283;DHT22;11810;51.178;3.878;2023-01-15T07:22:06;5.60;99.90
23283;DHT22;11810;51.178;3.878;2023-01-15T07:24:32;5.70;99.90
23283;DHT22;11810;51.178;3.878;2023-01-15T07:26:58;5.60;99.90
23283;DHT22;11810;51.178;3.878;2023-01-15T07:29:24;5.60;99.90
23283;DHT22;11810;51.178;3.878;2023-01-15T07:31:50;5.50;99.90
23283;DHT22;11810;51.178;3.878;2023-01-15T07:34:16;5.60;99.90
23283;DHT22;11810;51.178;3.878;2023-01-15T07:37:08;5.60;99.90
23283;DHT22;11810;51.178;3.878;2023-01-15T08:13:39;4.90;99.90
23283;DHT22;11810;51.178;3.878;2023-01-15T08:16:23;5.70;99.90
23283;DHT22;11810;51.178;3.878;2023-01-15T08:18:49;5.70;99.90
23283;DHT22;11810;51.178;3.878;2023-01-15T08:21:15;5.70;99.90
23283;DHT22;11810;51.178;3.878;2023-01-15T08:23:42;5.70;99.90
23283;DHT22;11810;51.178;3.878;2023-01-15T08:26:10;5.80;99.90
23283;DHT22;11810;51.178;3.878;2023-01-15T08:28:36;5.80;99.90
23283;DHT22;11810;51.178;3.878;2023-01-15T08:31:05;5.90;99.90
23283;DHT22;11810;51.178;3.878;2023-01-15T08:33:31;5.90;99.90
23283;DHT22;11810;51.178;3.878;2023-01-15T08:35:57;6.00;99.90
23283;DHT22;11810;51.178;3.878;2023-01-15T08:38:23;5.90;99.90
23283;DHT22;11810;51.178;3.878;2023-01-15T08:40:52;6.10;99.90
23283;DHT22;11810;51.178;3.878;2023-01-15T08:43:26;6.30;99.90
23283;DHT22;11810;51.178;3.878;2023-01-15T08:45:54;6.40;99.90
23283;DHT22;11810;51.178;3.878;2023-01-15T08:48:23;6.60;99.90
23283;DHT22;11810;51.178;3.878;2023-01-15T08:50:48;6.70;99.90
23283;DHT22;11810;51.178;3.878;2023-01-15T08:53:16;6.90;99.90
23283;DHT22;11810;51.178;3.878;2023-01-15T08:55:46;7.20;99.90
23283;DHT22;11810;51.178;3.878;2023-01-15T09:32:05;6.80;99.90
23283;DHT22;11810;51.178;3.878;2023-01-15T09:34:34;7.60;99.90
23283;DHT22;11810;51.178;3.878;2023-01-15T09:37:00;7.70;99.90
23283;DHT22;11810;51.178;3.878;2023-01-15T09:39:26;7.70;99.90
23283;DHT22;11810;51.178;3.878;2023-01-15T09:55:47;8.30;99.90
23283;DHT22;11810;51.178;3.878;2023-01-15T09:58:17;7.80;99.90
23283;DHT22;11810;51.178;3.878;2023-01-15T10:00:49;7.50;99.90
23283;DHT22;11810;51.178;3.878;2023-01-15T10:03:35;7.60;99.90
23283;DHT22;11810;51.178;3.878;2023-01-15T10:06:14;7.60;99.90
23283;DHT22;11810;51.178;3.878;2023-01-15T10:08:45;7.80;99.90
23283;DHT22;11810;51.178;3.878;2023-01-15T10:13:48;7.80;99.90
23283;DHT22;11810;51.178;3.878;2023-01-15T10:16:23;7.80;99.90
23283;DHT22;11810;51.178;3.878;2023-01-15T10:18:50;7.60;99.90
23283;DHT22;11810;51.178;3.878;2023-01-15T10:25:25;7.10;99.90
23283;DHT22;11810;51.178;3.878;2023-01-15T10:27:55;7.00;99.90
23283;DHT22;11810;51.178;3.878;2023-01-15T10:32:54;7.00;99.90
23283;DHT22;11810;51.178;3.878;2023-01-15T10:38:19;7.30;99.90
23283;DHT22;11810;51.178;3.878;2023-01-15T10:41:04;7.50;99.90
23283;DHT22;11810;51.178;3.878;2023-01-15T10:45:01;7.50;99.90
23283;DHT22;11810;51.178;3.878;2023-01-15T10:47:35;7.30;99.90
23283;DHT22;11810;51.178;3.878;2023-01-15T10:50:15;7.30;99.90
23283;DHT22;11810;51.178;3.878;2023-01-15T10:52:44;7.30;99.90
23283;DHT22;11810;51.178;3.878;2023-01-15T10:55:27;7.10;99.90
23283;DHT22;11810;51.178;3.878;2023-01-15T11:01:02;6.50;99.90
23283;DHT22;11810;51.178;3.878;2023-01-15T11:03:38;6.50;99.90
23283;DHT22;11810;51.178;3.878;2023-01-15T11:06:10;6.40;99.90
23283;DHT22;11810;51.178;3.878;2023-01-15T11:08:36;6.50;99.90
23283;DHT22;11810;51.178;3.878;2023-01-15T11:14:17;7.00;99.90
23283;DHT22;11810;51.178;3.878;2023-01-15T11:17:01;7.20;99.90
23283;DHT22;11810;51.178;3.878;2023-01-15T11:20:45;7.50;99.90
23283;DHT22;11810;51.178;3.878;2023-01-15T11:23:17;7.30;99.90
23283;DHT22;11810;51.178;3.878;2023-01-15T11:25:53;7.50;99.90
23283;DHT22;11810;51.178;3.878;2023-01-15T11:28:40;7.50;99.90
23283;DHT22;11810;51.178;3.878;2023-01-15T11:31:09;7.20;99.90
23283;DHT22;11810;51.178;3.878;2023-01-15T11:33:36;7.30;99.90
23283;DHT22;11810;51.178;3.878;2023-01-15T11:36:24;7.20;99.90
23283;DHT22;11810;51.178;3.878;2023-01-15T11:38:50;7.20;99.90
23283;DHT22;11810;51.178;3.878;2023-01-15T11:41:31;7.20;99.90
23283;DHT22;11810;51.178;3.878;2023-01-15T11:44:17;7.40;99.90
23283;DHT22;11810;51.178;3.878;2023-01-15T11:47:02;7.50;99.90
23283;DHT22;11810;51.178;3.878;2023-01-15T11:49:51;7.40;99.90
23283;DHT22;11810;51.178;3.878;2023-01-15T11:52:37;7.30;99.90
23283;DHT22;11810;51.178;3.878;2023-01-15T11:55:28;7.40;99.90
23283;DHT22;11810;51.178;3.878;2023-01-15T11:57:54;7.50;99.90
23283;DHT22;11810;51.178;3.878;2023-01-15T12:02:54;7.40;99.90
23283;DHT22;11810;51.178;3.878;2023-01-15T12:05:28;7.30;99.90
23283;DHT22;11810;51.178;3.878;2023-01-15T12:07:57;7.40;99.90
23283;DHT22;11810;51.178;3.878;2023-01-15T12:10:36;7.60;99.90
23283;DHT22;11810;51.178;3.878;2023-01-15T12:30:13;7.50;99.90
23283;DHT22;11810;51.178;3.878;2023-01-15T12:32:51;7.60;99.90
23283;DHT22;11810;51.178;3.878;2023-01-15T12:35:32;7.70;99.90
23283;DHT22;11810;51.178;3.878;2023-01-15T12:43:15;8.00;99.90
23283;DHT22;11810;51.178;3.878;2023-01-15T12:46:04;8.10;99.90
23283;DHT22;11810;51.178;3.878;2023-01-15T12:48:49;8.20;99.90
23283;DHT22;11810;51.178;3.878;2023-01-15T12:51:25;8.30;99.90
23283;DHT22;11810;51.178;3.878;2023-01-15T12:54:09;8.20;99.90
23283;DHT22;11810;51.178;3.878;2023-01-15T12:56:46;8.20;99.90
23283;DHT22;11810;51.178;3.878;2023-01-15T12:59:47;8.10;99.90
23283;DHT22;11810;51.178;3.878;2023-01-15T13:05:15;7.80;99.90
23283;DHT22;11810;51.178;3.878;2023-01-15T13:10:25;7.90;99.90
23283;DHT22;11810;51.178;3.878;2023-01-15T13:12:53;7.80;99.90
23283;DHT22;11810;51.178;3.878;2023-01-15T13:15:26;7.90;99.90
23283;DHT22;11810;51.178;3.878;2023-01-15T13:21:44;7.80;99.90
23283;DHT22;11810;51.178;3.878;2023-01-15T13:28:04;8.00;99.90
23283;DHT22;11810;51.178;3.878;2023-01-15T13:35:51;7.90;99.90
23283;DHT22;11810;51.178;3.878;2023-01-15T13:38:21;8.00;99.90
23283;DHT22;11810;51.178;3.878;2023-01-15T13:40:51;7.90;99.90
23283;DHT22;11810;51.178;3.878;2023-01-15T13:43:28;7.80;99.90
23283;DHT22;11810;51.178;3.878;2023-01-15T13:45:57;7.70;99.90
23283;DHT22;11810;51.178;3.878;2023-01-15T13:48:45;7.70;99.90
23283;DHT22;11810;51.178;3.878;2023-01-15T13:52:01;7.80;99.90
23283;DHT22;11810;51.178;3.878;2023-01-15T13:54:30;8.00;99.90
23283;DHT22;11810;51.178;3.878;2023-01-15T13:59:49;7.90;99.90
23283;DHT22;11810;51.178;3.878;2023-01-15T14:02:30;7.80;99.90
23283;DHT22;11810;51.178;3.878;2023-01-15T14:04:56;7.70;99.90
23283;DHT22;11810;51.178;3.878;2023-01-15T14:07:36;7.50;99.90
23283;DHT22;11810;51.178;3.878;2023-01-15T14:10:09;7.50;99.90
23283;DHT22;11810;51.178;3.878;2023-01-15T14:18:16;7.00;99.90
23283;DHT22;11810;51.178;3.878;2023-01-15T14:21:02;6.90;99.90
23283;DHT22;11810;51.178;3.878;2023-01-15T14:23:56;6.90;99.90
23283;DHT22;11810;51.178;3.878;2023-01-15T14:35:09;6.80;99.90
23283;DHT22;11810;51.178;3.878;2023-01-15T14:40:33;6.70;99.90
23283;DHT22;11810;51.178;3.878;2023-01-15T14:43:16;6.70;99.90
23283;DHT22;11810;51.178;3.878;2023-01-15T14:45:45;6.70;99.90
23283;DHT22;11810;51.178;3.878;2023-01-15T14:51:07;6.70;99.90
23283;DHT22;11810;51.178;3.878;2023-01-15T14:53:40;6.70;99.90
23283;DHT22;11810;51.178;3.878;2023-01-15T14:56:15;6.70;99.90
23283;DHT22;11810;51.178;3.878;2023-01-15T15:01:35;6.70;99.90
23283;DHT22;11810;51.178;3.878;2023-01-15T15:09:11;6.70;99.90
23283;DHT22;11810;51.178;3.878;2023-01-15T15:11:42;6.80;99.90
23283;DHT22;11810;51.178;3.878;2023-01-15T15:14:29;6.80;99.90
23283;DHT22;11810;51.178;3.878;2023-01-15T15:17:20;6.70;99.90
23283;DHT22;11810;51.178;3.878;2023-01-15T15:19:59;6.70;99.90
23283;DHT22;11810;51.178;3.878;2023-01-15T15:22:29;6.80;99.90
23283;DHT22;11810;51.178;3.878;2023-01-15T15:24:58;6.80;99.90
23283;DHT22;11810;51.178;3.878;2023-01-15T15:27:25;6.70;99.90
23283;DHT22;11810;51.178;3.878;2023-01-15T15:30:03;6.60;99.90
23283;DHT22;11810;51.178;3.878;2023-01-15T15:32:29;6.60;99.90
23283;DHT22;11810;51.178;3.878;2023-01-15T15:35:29;6.60;99.90
23283;DHT22;11810;51.178;3.878;2023-01-15T15:38:02;6.60;99.90
23283;DHT22;11810;51.178;3.878;2023-01-15T15:40:36;6.50;99.90
23283;DHT22;11810;51.178;3.878;2023-01-15T15:43:19;6.50;99.90
23283;DHT22;11810;51.178;3.878;2023-01-15T15:48:18;6.30;99.90
23283;DHT22;11810;51.178;3.878;2023-01-15T15:51:04;6.30;99.90
23283;DHT22;11810;51.178;3.878;2023-01-15T15:53:30;6.30;99.90
23283;DHT22;11810;51.178;3.878;2023-01-15T15:55:57;6.30;99.90
23283;DHT22;11810;51.178;3.878;2023-01-15T15:58:33;6.30;99.90
23283;DHT22;11810;51.178;3.878;2023-01-15T16:01:00;6.20;99.90
23283;DHT22;11810;51.178;3.878;2023-01-15T16:03:28;6.10;99.90
23283;DHT22;11810;51.178;3.878;2023-01-15T16:06:03;6.10;99.90
23283;DHT22;11810;51.178;3.878;2023-01-15T16:08:31;6.10;99.90
23283;DHT22;11810;51.178;3.878;2023-01-15T16:11:04;6.10;99.90
23283;DHT22;11810;51.178;3.878;2023-01-15T16:13:51;6.00;99.90
23283;DHT22;11810;51.178;3.878;2023-01-15T16:16:18;6.00;99.90
23283;DHT22;11810;51.178;3.878;2023-01-15T16:18:48;6.00;99.90
23283;DHT22;11810;51.178;3.878;2023-01-15T16:21:35;6.00;99.90
23283;DHT22;11810;51.178;3.878;2023-01-15T16:24:04;6.00;99.90
23283;DHT22;11810;51.178;3.878;2023-01-15T16:29:14;6.10;99.90
23283;DHT22;11810;51.178;3.878;2023-01-15T16:31:42;6.10;99.90
23283;DHT22;11810;51.178;3.878;2023-01-15T16:34:31;6.10;99.90
23283;DHT22;11810;51.178;3.878;2023-01-15T16:36:58;5.90;99.90
23283;DHT22;11810;51.178;3.878;2023-01-15T16:39:44;5.80;99.90
23283;DHT22;11810;51.178;3.878;2023-01-15T16:44:54;5.90;99.90
23283;DHT22;11810;51.178;3.878;2023-01-15T16:47:26;5.90;99.90
23283;DHT22;11810;51.178;3.878;2023-01-15T16:49:53;5.90;99.90
23283;DHT22;11810;51.178;3.878;2023-01-15T16:52:55;5.90;99.90
23283;DHT22;11810;51.178;3.878;2023-01-15T16:55:47;6.00;99.90
23283;DHT22;11810;51.178;3.878;2023-01-15T16:58:35;5.90;99.90
23283;DHT22;11810;51.178;3.878;2023-01-15T17:01:38;5.80;99.90
23283;DHT22;11810;51.178;3.878;2023-01-15T17:04:26;5.80;99.90
23283;DHT22;11810;51.178;3.878;2023-01-15T17:09:54;5.90;99.90
23283;DHT22;11810;51.178;3.878;2023-01-15T17:12:25;5.80;99.90
23283;DHT22;11810;51.178;3.878;2023-01-15T17:14:52;5.80;99.90
23283;DHT22;11810;51.178;3.878;2023-01-15T17:19:47;5.60;99.90
23283;DHT22;11810;51.178;3.878;2023-01-15T17:22:15;5.50;99.90
23283;DHT22;11810;51.178;3.878;2023-01-15T17:24:54;5.40;99.90
23283;DHT22;11810;51.178;3.878;2023-01-15T17:27:21;5.20;99.90
23283;DHT22;11810;51.178;3.878;2023-01-15T17:29:47;5.20;99.90
23283;DHT22;11810;51.178;3.878;2023-01-15T17:32:36;5.20;99.90
23283;DHT22;11810;51.178;3.878;2023-01-15T17:35:01;5.20;99.90
23283;DHT22;11810;51.178;3.878;2023-01-15T17:37:27;5.30;99.90
23283;DHT22;11810;51.178;3.878;2023-01-15T17:39:53;5.30;99.90
23283;DHT22;11810;51.178;3.878;2023-01-15T17:42:19;5.30;99.90
23283;DHT22;11810;51.178;3.878;2023-01-15T17:44:45;5.10;99.90
23283;DHT22;11810;51.178;3.878;2023-01-15T17:47:11;5.10;99.90
23283;DHT22;11810;51.178;3.878;2023-01-15T17:49:37;5.10;99.90
23283;DHT22;11810;51.178;3.878;2023-01-15T17:52:06;5.10;99.90
23283;DHT22;11810;51.178;3.878;2023-01-15T17:54:32;5.10;99.90
23283;DHT22;11810;51.178;3.878;2023-01-15T17:57:17;5.20;99.90
23283;DHT22;11810;51.178;3.878;2023-01-15T18:00:02;5.20;99.90
23283;DHT22;11810;51.178;3.878;2023-01-15T18:02:46;5.30;99.90
23283;DHT22;11810;51.178;3.878;2023-01-15T18:05:31;5.40;99.90
23283;DHT22;11810;51.178;3.878;2023-01-15T18:08:02;5.50;99.90
23283;DHT22;11810;51.178;3.878;2023-01-15T18:10:29;5.50;99.90
23283;DHT22;11810;51.178;3.878;2023-01-15T18:12:55;5.50;99.90
23283;DHT22;11810;51.178;3.878;2023-01-15T18:15:21;5.70;99.90
23283;DHT22;11810;51.178;3.878;2023-01-15T18:17:47;5.80;99.90
23283;DHT22;11810;51.178;3.878;2023-01-15T18:20:13;6.00;99.90
23283;DHT22;11810;51.178;3.878;2023-01-15T18:24:31;6.00;99.90
23283;DHT22;11810;51.178;3.878;2023-01-15T18:26:57;6.00;99.90
23283;DHT22;11810;51.178;3.878;2023-01-15T18:29:23;6.10;99.90
23283;DHT22;11810;51.178;3.878;2023-01-15T18:31:49;6.20;99.90
23283;DHT22;11810;51.178;3.878;2023-01-15T18:34:15;6.30;99.90
23283;DHT22;11810;51.178;3.878;2023-01-15T18:36:41;6.40;99.90
23283;DHT22;11810;51.178;3.878;2023-01-15T18:39:07;6.20;99.90
23283;DHT22;11810;51.178;3.878;2023-01-15T18:41:37;6.20;99.90
23283;DHT22;11810;51.178;3.878;2023-01-15T18:44:05;6.00;99.90
23283;DHT22;11810;51.178;3.878;2023-01-15T18:46:53;5.90;99.90
23283;DHT22;11810;51.178;3.878;2023-01-15T18:49:20;6.00;99.90
23283;DHT22;11810;51.178;3.878;2023-01-15T18:51:46;6.00;99.90
23283;DHT22;11810;51.178;3.878;2023-01-15T18:55:07;6.10;99.90
23283;DHT22;11810;51.178;3.878;2023-01-15T18:57:33;6.10;99.90
23283;DHT22;11810;51.178;3.878;2023-01-15T18:59:59;6.20;99.90
23283;DHT22;11810;51.178;3.878;2023-01-15T19:02:36;6.10;99.90
23283;DHT22;11810;51.178;3.878;2023-01-15T19:05:03;6.10;99.90
23283;DHT22;11810;51.178;3.878;2023-01-15T19:07:29;6.10;99.90
23283;DHT22;11810;51.178;3.878;2023-01-15T19:09:55;6.10;99.90
23283;DHT22;11810;51.178;3.878;2023-01-15T19:12:21;6.20;99.90
23283;DHT22;11810;51.178;3.878;2023-01-15T19:14:47;6.40;99.90
23283;DHT22;11810;51.178;3.878;2023-01-15T19:18:38;6.50;99.90
23283;DHT22;11810;51.178;3.878;2023-01-15T19:22:47;6.50;99.90
23283;DHT22;11810;51.178;3.878;2023-01-15T19:28:04;6.50;99.90
23283;DHT22;11810;51.178;3.878;2023-01-15T19:32:00;6.40;99.90
23283;DHT22;11810;51.178;3.878;2023-01-15T19:34:29;6.40;99.90
23283;DHT22;11810;51.178;3.878;2023-01-15T19:36:56;6.50;99.90
23283;DHT22;11810;51.178;3.878;2023-01-15T19:40:41;6.40;99.90
23283;DHT22;11810;51.178;3.878;2023-01-15T19:43:08;6.50;99.90
23283;DHT22;11810;51.178;3.878;2023-01-15T19:46:52;6.40;99.90
23283;DHT22;11810;51.178;3.878;2023-01-15T19:49:36;6.40;99.90
23283;DHT22;11810;51.178;3.878;2023-01-15T19:52:21;6.40;99.90